sensor_id;sensor_type;location;lat;lon;timestamp;P1;durP1;ratioP1;P2;durP2;ratioP2
44438;SDS011;30145;48.874;10.186;2024-03-06T00:00:38;7.23;;;5.93;;
44438;SDS011;30145;48.874;10.186;2024-03-06T00:03:05;7.93;;;6.60;;
44438;SDS011;30145;48.874;10.186;2024-03-06T00:05:32;9.87;;;6.73;;
44438;SDS011;30145;48.874;10.186;2024-03-06T00:07:59;12.80;;;8.07;;
44438;SDS011;30145;48.874;10.186;2024-03-06T00:10:29;9.20;;;7.47;;
44438;SDS011;30145;48.874;10.186;2024-03-06T00:12:57;7.93;;;6.80;;
44438;SDS011;30145;48.874;10.186;2024-03-06T00:15:24;7.83;;;7.03;;
44438;SDS011;30145;48.874;10.186;2024-03-06T00:17:51;8.07;;;6.90;;
44438;SDS011;30145;48.874;10.186;2024-03-06T00:20:18;10.23;;;8.00;;
44438;SDS011;30145;48.874;10.186;2024-03-06T00:22:45;10.97;;;7.33;;
44438;SDS011;30145;48.874;10.186;2024-03-06T00:25:12;10.03;;;7.20;;
44438;SDS011;30145;48.874;10.186;2024-03-06T00:27:40;11.60;;;8.07;;
44438;SDS011;30145;48.874;10.186;2024-03-06T00:30:07;9.37;;;6.80;;
44438;SDS011;30145;48.874;10.186;2024-03-06T00:32:34;10.80;;;8.03;;
44438;SDS011;30145;48.874;10.186;2024-03-06T00:35:01;13.67;;;8.20;;
44438;SDS011;30145;48.874;10.186;2024-03-06T00:37:29;9.13;;;7.50;;
44438;SDS011;30145;48.874;10.186;2024-03-06T00:39:56;12.87;;;7.43;;
44438;SDS011;30145;48.874;10.186;2024-03-06T00:42:23;9.10;;;7.17;;
44438;SDS011;30145;48.874;10.186;2024-03-06T00:44:50;10.77;;;7.90;;
44438;SDS011;30145;48.874;10.186;2024-03-06T00:47:17;9.07;;;7.00;;
44438;SDS011;30145;48.874;10.186;2024-03-06T00:49:44;11.43;;;7.47;;
44438;SDS011;30145;48.874;10.186;2024-03-06T00:52:11;11.80;;;8.13;;
44438;SDS011;30145;48.874;10.186;2024-03-06T00:54:39;10.53;;;7.83;;
44438;SDS011;30145;48.874;10.186;2024-03-06T00:57:06;10.53;;;8.00;;
44438;SDS011;30145;48.874;10.186;2024-03-06T00:59:33;11.57;;;7.67;;
44438;SDS011;30145;48.874;10.186;2024-03-06T01:02:01;9.80;;;7.80;;
44438;SDS011;30145;48.874;10.186;2024-03-06T01:04:28;9.33;;;7.43;;
44438;SDS011;30145;48.874;10.186;2024-03-06T01:06:55;10.07;;;7.90;;
44438;SDS011;30145;48.874;10.186;2024-03-06T01:09:23;10.53;;;8.47;;
44438;SDS011;30145;48.874;10.186;2024-03-06T01:11:51;10.57;;;7.83;;
44438;SDS011;30145;48.874;10.186;2024-03-06T01:14:18;13.87;;;8.90;;
44438;SDS011;30145;48.874;10.186;2024-03-06T01:16:45;14.80;;;8.87;;
44438;SDS011;30145;48.874;10.186;2024-03-06T01:19:13;11.40;;;9.17;;
44438;SDS011;30145;48.874;10.186;2024-03-06T01:21:40;13.37;;;9.20;;
44438;SDS011;30145;48.874;10.186;2024-03-06T01:24:07;12.00;;;9.13;;
44438;SDS011;30145;48.874;10.186;2024-03-06T01:26:34;11.00;;;8.80;;
44438;SDS011;30145;48.874;10.186;2024-03-06T01:29:01;13.50;;;9.47;;
44438;SDS011;30145;48.874;10.186;2024-03-06T01:31:29;10.10;;;8.73;;
44438;SDS011;30145;48.874;10.186;2024-03-06T01:33:56;11.73;;;8.83;;
44438;SDS011;30145;48.874;10.186;2024-03-06T01:36:23;13.07;;;9.00;;
44438;SDS011;30145;48.874;10.186;2024-03-06T01:38:51;13.57;;;9.27;;
44438;SDS011;30145;48.874;10.186;2024-03-06T01:41:19;12.57;;;8.90;;
44438;SDS011;30145;48.874;10.186;2024-03-06T01:43:46;10.40;;;8.23;;
44438;SDS011;30145;48.874;10.186;2024-03-06T01:46:13;11.10;;;9.10;;
44438;SDS011;30145;48.874;10.186;2024-03-06T01:48:40;11.07;;;9.37;;
44438;SDS011;30145;48.874;10.186;2024-03-06T01:51:09;10.13;;;8.00;;
44438;SDS011;30145;48.874;10.186;2024-03-06T01:53:36;10.37;;;8.43;;
44438;SDS011;30145;48.874;10.186;2024-03-06T01:56:04;11.37;;;8.03;;
44438;SDS011;30145;48.874;10.186;2024-03-06T01:58:32;11.53;;;8.87;;
44438;SDS011;30145;48.874;10.186;2024-03-06T02:01:00;11.53;;;8.43;;
44438;SDS011;30145;48.874;10.186;2024-03-06T02:03:27;10.97;;;8.83;;
44438;SDS011;30145;48.874;10.186;2024-03-06T02:05:56;9.93;;;8.40;;
44438;SDS011;30145;48.874;10.186;2024-03-06T02:08:25;13.13;;;8.77;;
44438;SDS011;30145;48.874;10.186;2024-03-06T02:10:52;11.90;;;8.60;;
44438;SDS011;30145;48.874;10.186;2024-03-06T02:13:19;12.70;;;8.80;;
44438;SDS011;30145;48.874;10.186;2024-03-06T02:15:47;11.23;;;9.10;;
44438;SDS011;30145;48.874;10.186;2024-03-06T02:18:14;10.23;;;8.53;;
44438;SDS011;30145;48.874;10.186;2024-03-06T02:20:42;10.13;;;8.47;;
44438;SDS011;30145;48.874;10.186;2024-03-06T02:23:10;12.67;;;8.30;;
44438;SDS011;30145;48.874;10.186;2024-03-06T02:25:36;12.30;;;8.23;;
44438;SDS011;30145;48.874;10.186;2024-03-06T02:28:04;12.47;;;8.90;;
44438;SDS011;30145;48.874;10.186;2024-03-06T02:30:32;12.07;;;9.33;;
44438;SDS011;30145;48.874;10.186;2024-03-06T02:33:03;14.40;;;9.33;;
44438;SDS011;30145;48.874;10.186;2024-03-06T02:35:30;11.33;;;8.97;;
44438;SDS011;30145;48.874;10.186;2024-03-06T02:38:01;10.73;;;8.97;;
44438;SDS011;30145;48.874;10.186;2024-03-06T02:40:31;13.23;;;9.40;;
44438;SDS011;30145;48.874;10.186;2024-03-06T02:42:59;14.07;;;9.43;;
44438;SDS011;30145;48.874;10.186;2024-03-06T02:45:26;13.63;;;9.73;;
44438;SDS011;30145;48.874;10.186;2024-03-06T02:47:53;13.43;;;10.00;;
44438;SDS011;30145;48.874;10.186;2024-03-06T02:50:20;12.03;;;9.20;;
44438;SDS011;30145;48.874;10.186;2024-03-06T02:52:47;12.20;;;8.87;;
44438;SDS011;30145;48.874;10.186;2024-03-06T02:55:15;10.20;;;8.10;;
44438;SDS011;30145;48.874;10.186;2024-03-06T02:57:45;12.30;;;9.90;;
44438;SDS011;30145;48.874;10.186;2024-03-06T03:00:12;12.23;;;9.60;;
44438;SDS011;30145;48.874;10.186;2024-03-06T03:02:40;13.27;;;9.83;;
44438;SDS011;30145;48.874;10.186;2024-03-06T03:05:07;13.27;;;9.30;;
44438;SDS011;30145;48.874;10.186;2024-03-06T03:07:34;13.40;;;9.17;;
44438;SDS011;30145;48.874;10.186;2024-03-06T03:10:01;12.10;;;9.67;;
44438;SDS011;30145;48.874;10.186;2024-03-06T03:12:29;12.90;;;9.30;;
44438;SDS011;30145;48.874;10.186;2024-03-06T03:14:56;13.60;;;9.83;;
44438;SDS011;30145;48.874;10.186;2024-03-06T03:17:23;15.23;;;9.60;;
44438;SDS011;30145;48.874;10.186;2024-03-06T03:19:50;14.20;;;9.93;;
44438;SDS011;30145;48.874;10.186;2024-03-06T03:22:17;13.63;;;9.57;;
44438;SDS011;30145;48.874;10.186;2024-03-06T03:24:44;14.73;;;9.80;;
44438;SDS011;30145;48.874;10.186;2024-03-06T03:27:11;13.40;;;9.80;;
44438;SDS011;30145;48.874;10.186;2024-03-06T03:29:38;13.73;;;9.70;;
44438;SDS011;30145;48.874;10.186;2024-03-06T03:32:06;14.03;;;11.10;;
44438;SDS011;30145;48.874;10.186;2024-03-06T03:34:34;12.63;;;10.23;;
44438;SDS011;30145;48.874;10.186;2024-03-06T03:37:02;14.90;;;10.67;;
44438;SDS011;30145;48.874;10.186;2024-03-06T03:39:29;14.90;;;10.30;;
44438;SDS011;30145;48.874;10.186;2024-03-06T03:41:56;16.77;;;11.73;;
44438;SDS011;30145;48.874;10.186;2024-03-06T03:44:23;13.50;;;9.63;;
44438;SDS011;30145;48.874;10.186;2024-03-06T03:46:50;12.70;;;10.07;;
44438;SDS011;30145;48.874;10.186;2024-03-06T03:49:17;15.93;;;10.80;;
44438;SDS011;30145;48.874;10.186;2024-03-06T03:51:45;14.60;;;10.60;;
44438;SDS011;30145;48.874;10.186;2024-03-06T03:54:12;13.73;;;11.07;;
44438;SDS011;30145;48.874;10.186;2024-03-06T03:56:39;14.37;;;10.37;;
44438;SDS011;30145;48.874;10.186;2024-03-06T03:59:06;18.90;;;11.77;;
44438;SDS011;30145;48.874;10.186;2024-03-06T04:01:34;14.77;;;11.83;;
44438;SDS011;30145;48.874;10.186;2024-03-06T04:04:01;17.10;;;12.13;;
44438;SDS011;30145;48.874;10.186;2024-03-06T04:06:28;16.23;;;12.13;;
44438;SDS011;30145;48.874;10.186;2024-03-06T04:08:55;18.13;;;12.93;;
44438;SDS011;30145;48.874;10.186;2024-03-06T04:11:22;16.40;;;11.97;;
44438;SDS011;30145;48.874;10.186;2024-03-06T04:13:49;16.47;;;12.00;;
44438;SDS011;30145;48.874;10.186;2024-03-06T04:16:16;16.47;;;11.83;;
44438;SDS011;30145;48.874;10.186;2024-03-06T04:18:47;15.53;;;11.87;;
44438;SDS011;30145;48.874;10.186;2024-03-06T04:21:14;19.40;;;12.97;;
44438;SDS011;30145;48.874;10.186;2024-03-06T04:23:42;16.63;;;11.97;;
44438;SDS011;30145;48.874;10.186;2024-03-06T04:26:10;17.77;;;12.60;;
44438;SDS011;30145;48.874;10.186;2024-03-06T04:28:37;18.53;;;13.03;;
44438;SDS011;30145;48.874;10.186;2024-03-06T04:31:05;17.43;;;13.30;;
44438;SDS011;30145;48.874;10.186;2024-03-06T04:33:32;16.83;;;12.77;;
44438;SDS011;30145;48.874;10.186;2024-03-06T04:36:00;15.53;;;12.37;;
44438;SDS011;30145;48.874;10.186;2024-03-06T04:38:29;17.23;;;12.30;;
44438;SDS011;30145;48.874;10.186;2024-03-06T04:40:56;17.87;;;12.50;;
44438;SDS011;30145;48.874;10.186;2024-03-06T04:43:23;17.93;;;12.67;;
44438;SDS011;30145;48.874;10.186;2024-03-06T04:45:50;20.03;;;13.20;;
44438;SDS011;30145;48.874;10.186;2024-03-06T04:48:18;21.30;;;13.63;;
44438;SDS011;30145;48.874;10.186;2024-03-06T04:50:45;18.83;;;12.80;;
44438;SDS011;30145;48.874;10.186;2024-03-06T04:53:12;19.10;;;13.37;;
44438;SDS011;30145;48.874;10.186;2024-03-06T04:55:39;18.47;;;13.70;;
44438;SDS011;30145;48.874;10.186;2024-03-06T04:58:06;18.67;;;13.20;;
44438;SDS011;30145;48.874;10.186;2024-03-06T05:00:33;18.17;;;12.87;;
44438;SDS011;30145;48.874;10.186;2024-03-06T05:03:00;18.83;;;13.13;;
44438;SDS011;30145;48.874;10.186;2024-03-06T05:05:45;23.40;;;15.33;;
44438;SDS011;30145;48.874;10.186;2024-03-06T05:08:29;20.33;;;14.00;;
44438;SDS011;30145;48.874;10.186;2024-03-06T05:11:13;17.77;;;13.23;;
44438;SDS011;30145;48.874;10.186;2024-03-06T05:13:59;21.13;;;14.40;;
44438;SDS011;30145;48.874;10.186;2024-03-06T05:16:43;18.93;;;13.03;;
44438;SDS011;30145;48.874;10.186;2024-03-06T05:19:28;19.43;;;14.00;;
44438;SDS011;30145;48.874;10.186;2024-03-06T05:22:16;19.43;;;13.60;;
44438;SDS011;30145;48.874;10.186;2024-03-06T05:25:01;18.30;;;14.60;;
44438;SDS011;30145;48.874;10.186;2024-03-06T05:27:45;17.83;;;13.47;;
44438;SDS011;30145;48.874;10.186;2024-03-06T05:30:29;20.97;;;15.03;;
44438;SDS011;30145;48.874;10.186;2024-03-06T05:33:14;20.63;;;14.43;;
44438;SDS011;30145;48.874;10.186;2024-03-06T05:35:58;22.27;;;15.03;;
44438;SDS011;30145;48.874;10.186;2024-03-06T05:38:46;18.37;;;14.53;;
44438;SDS011;30145;48.874;10.186;2024-03-06T05:41:32;20.33;;;13.97;;
44438;SDS011;30145;48.874;10.186;2024-03-06T05:44:17;24.17;;;14.90;;
44438;SDS011;30145;48.874;10.186;2024-03-06T05:47:02;21.33;;;13.70;;
44438;SDS011;30145;48.874;10.186;2024-03-06T05:49:47;20.03;;;14.50;;
44438;SDS011;30145;48.874;10.186;2024-03-06T05:52:32;21.17;;;14.57;;
44438;SDS011;30145;48.874;10.186;2024-03-06T05:55:16;22.07;;;14.50;;
44438;SDS011;30145;48.874;10.186;2024-03-06T05:58:00;21.27;;;14.77;;
44438;SDS011;30145;48.874;10.186;2024-03-06T06:00:33;20.83;;;14.50;;
44438;SDS011;30145;48.874;10.186;2024-03-06T06:03:00;21.57;;;14.57;;
44438;SDS011;30145;48.874;10.186;2024-03-06T06:05:27;20.23;;;14.10;;
44438;SDS011;30145;48.874;10.186;2024-03-06T06:07:54;21.20;;;14.47;;
44438;SDS011;30145;48.874;10.186;2024-03-06T06:10:21;17.83;;;14.07;;
44438;SDS011;30145;48.874;10.186;2024-03-06T06:12:48;21.03;;;14.70;;
44438;SDS011;30145;48.874;10.186;2024-03-06T06:15:16;22.47;;;15.33;;
44438;SDS011;30145;48.874;10.186;2024-03-06T06:17:43;21.93;;;15.97;;
44438;SDS011;30145;48.874;10.186;2024-03-06T06:20:11;25.00;;;16.00;;
44438;SDS011;30145;48.874;10.186;2024-03-06T06:22:41;21.63;;;15.43;;
44438;SDS011;30145;48.874;10.186;2024-03-06T06:25:08;23.37;;;15.63;;
44438;SDS011;30145;48.874;10.186;2024-03-06T06:27:36;23.27;;;15.53;;
44438;SDS011;30145;48.874;10.186;2024-03-06T06:30:03;24.27;;;16.33;;
44438;SDS011;30145;48.874;10.186;2024-03-06T06:32:31;24.93;;;15.63;;
44438;SDS011;30145;48.874;10.186;2024-03-06T06:34:58;24.20;;;16.60;;
44438;SDS011;30145;48.874;10.186;2024-03-06T06:37:27;26.50;;;16.43;;
44438;SDS011;30145;48.874;10.186;2024-03-06T06:39:54;25.37;;;16.37;;
44438;SDS011;30145;48.874;10.186;2024-03-06T06:42:21;22.30;;;15.90;;
44438;SDS011;30145;48.874;10.186;2024-03-06T06:44:48;26.17;;;17.50;;
44438;SDS011;30145;48.874;10.186;2024-03-06T06:47:16;22.17;;;15.63;;
44438;SDS011;30145;48.874;10.186;2024-03-06T06:49:43;20.90;;;15.30;;
44438;SDS011;30145;48.874;10.186;2024-03-06T06:52:11;20.03;;;14.17;;
44438;SDS011;30145;48.874;10.186;2024-03-06T06:54:38;21.23;;;15.80;;
44438;SDS011;30145;48.874;10.186;2024-03-06T06:57:05;22.43;;;15.67;;
44438;SDS011;30145;48.874;10.186;2024-03-06T06:59:32;24.33;;;15.57;;
44438;SDS011;30145;48.874;10.186;2024-03-06T07:01:59;22.53;;;15.33;;
44438;SDS011;30145;48.874;10.186;2024-03-06T07:04:26;23.83;;;16.40;;
44438;SDS011;30145;48.874;10.186;2024-03-06T07:06:53;22.93;;;16.10;;
44438;SDS011;30145;48.874;10.186;2024-03-06T07:09:21;23.07;;;16.60;;
44438;SDS011;30145;48.874;10.186;2024-03-06T07:11:48;23.53;;;16.93;;
44438;SDS011;30145;48.874;10.186;2024-03-06T07:14:16;27.47;;;17.57;;
44438;SDS011;30145;48.874;10.186;2024-03-06T07:16:43;26.23;;;17.93;;
44438;SDS011;30145;48.874;10.186;2024-03-06T07:19:12;26.73;;;17.97;;
44438;SDS011;30145;48.874;10.186;2024-03-06T07:21:39;25.90;;;16.73;;
44438;SDS011;30145;48.874;10.186;2024-03-06T07:24:06;26.23;;;18.07;;
44438;SDS011;30145;48.874;10.186;2024-03-06T07:26:33;25.87;;;17.47;;
44438;SDS011;30145;48.874;10.186;2024-03-06T07:29:00;25.73;;;16.40;;
44438;SDS011;30145;48.874;10.186;2024-03-06T07:31:28;28.47;;;18.40;;
44438;SDS011;30145;48.874;10.186;2024-03-06T07:33:55;27.00;;;17.77;;
44438;SDS011;30145;48.874;10.186;2024-03-06T07:36:22;23.33;;;16.80;;
44438;SDS011;30145;48.874;10.186;2024-03-06T07:38:49;21.63;;;15.53;;
44438;SDS011;30145;48.874;10.186;2024-03-06T07:41:17;20.83;;;15.77;;
44438;SDS011;30145;48.874;10.186;2024-03-06T07:43:43;23.87;;;16.47;;
44438;SDS011;30145;48.874;10.186;2024-03-06T07:46:10;23.97;;;15.83;;
44438;SDS011;30145;48.874;10.186;2024-03-06T07:48:41;26.27;;;16.30;;
44438;SDS011;30145;48.874;10.186;2024-03-06T07:51:10;22.57;;;15.40;;
44438;SDS011;30145;48.874;10.186;2024-03-06T07:53:37;20.67;;;15.00;;
44438;SDS011;30145;48.874;10.186;2024-03-06T07:56:04;19.67;;;13.77;;
44438;SDS011;30145;48.874;10.186;2024-03-06T07:58:31;26.80;;;16.23;;
44438;SDS011;30145;48.874;10.186;2024-03-06T08:00:59;24.63;;;16.53;;
44438;SDS011;30145;48.874;10.186;2024-03-06T08:03:27;23.97;;;15.67;;
44438;SDS011;30145;48.874;10.186;2024-03-06T08:05:54;27.23;;;17.07;;
44438;SDS011;30145;48.874;10.186;2024-03-06T08:08:21;24.60;;;17.17;;
44438;SDS011;30145;48.874;10.186;2024-03-06T08:10:48;27.60;;;17.33;;
44438;SDS011;30145;48.874;10.186;2024-03-06T08:13:15;24.70;;;15.03;;
44438;SDS011;30145;48.874;10.186;2024-03-06T08:15:43;22.10;;;14.57;;
44438;SDS011;30145;48.874;10.186;2024-03-06T08:18:11;21.50;;;14.97;;
44438;SDS011;30145;48.874;10.186;2024-03-06T08:20:39;21.70;;;14.13;;
44438;SDS011;30145;48.874;10.186;2024-03-06T08:23:07;19.93;;;14.00;;
44438;SDS011;30145;48.874;10.186;2024-03-06T08:25:36;20.77;;;14.90;;
44438;SDS011;30145;48.874;10.186;2024-03-06T08:28:04;21.73;;;14.33;;
44438;SDS011;30145;48.874;10.186;2024-03-06T08:30:32;23.63;;;15.43;;
44438;SDS011;30145;48.874;10.186;2024-03-06T08:32:59;20.77;;;15.20;;
44438;SDS011;30145;48.874;10.186;2024-03-06T08:35:27;20.00;;;14.27;;
44438;SDS011;30145;48.874;10.186;2024-03-06T08:37:54;18.03;;;13.53;;
44438;SDS011;30145;48.874;10.186;2024-03-06T08:40:21;20.50;;;14.83;;
44438;SDS011;30145;48.874;10.186;2024-03-06T08:42:49;19.13;;;13.43;;
44438;SDS011;30145;48.874;10.186;2024-03-06T08:45:17;21.03;;;13.77;;
44438;SDS011;30145;48.874;10.186;2024-03-06T08:47:44;19.50;;;14.17;;
44438;SDS011;30145;48.874;10.186;2024-03-06T08:50:12;19.20;;;14.17;;
44438;SDS011;30145;48.874;10.186;2024-03-06T08:52:39;19.97;;;13.10;;
44438;SDS011;30145;48.874;10.186;2024-03-06T08:55:08;23.03;;;15.60;;
44438;SDS011;30145;48.874;10.186;2024-03-06T08:57:35;22.63;;;15.50;;
44438;SDS011;30145;48.874;10.186;2024-03-06T09:00:03;20.37;;;14.40;;
44438;SDS011;30145;48.874;10.186;2024-03-06T09:02:31;23.40;;;15.23;;
44438;SDS011;30145;48.874;10.186;2024-03-06T09:04:58;25.57;;;17.03;;
44438;SDS011;30145;48.874;10.186;2024-03-06T09:07:25;27.03;;;17.87;;
44438;SDS011;30145;48.874;10.186;2024-03-06T09:09:52;28.33;;;18.33;;
44438;SDS011;30145;48.874;10.186;2024-03-06T09:12:19;29.50;;;16.93;;
44438;SDS011;30145;48.874;10.186;2024-03-06T09:14:46;24.70;;;15.97;;
44438;SDS011;30145;48.874;10.186;2024-03-06T09:17:13;24.30;;;15.07;;
44438;SDS011;30145;48.874;10.186;2024-03-06T09:19:41;21.63;;;14.73;;
44438;SDS011;30145;48.874;10.186;2024-03-06T09:22:13;22.90;;;14.97;;
44438;SDS011;30145;48.874;10.186;2024-03-06T09:24:40;19.30;;;13.53;;
44438;SDS011;30145;48.874;10.186;2024-03-06T09:27:07;18.07;;;13.73;;
44438;SDS011;30145;48.874;10.186;2024-03-06T09:29:34;22.13;;;14.23;;
44438;SDS011;30145;48.874;10.186;2024-03-06T09:32:01;20.67;;;13.53;;
44438;SDS011;30145;48.874;10.186;2024-03-06T09:34:29;18.33;;;13.50;;
44438;SDS011;30145;48.874;10.186;2024-03-06T09:36:56;20.47;;;13.80;;
44438;SDS011;30145;48.874;10.186;2024-03-06T09:39:23;16.70;;;12.40;;
44438;SDS011;30145;48.874;10.186;2024-03-06T09:41:50;22.00;;;13.87;;
44438;SDS011;30145;48.874;10.186;2024-03-06T09:44:17;20.00;;;12.80;;
44438;SDS011;30145;48.874;10.186;2024-03-06T09:46:47;21.57;;;14.27;;
44438;SDS011;30145;48.874;10.186;2024-03-06T09:49:15;19.47;;;13.70;;
44438;SDS011;30145;48.874;10.186;2024-03-06T09:51:45;22.17;;;14.07;;
44438;SDS011;30145;48.874;10.186;2024-03-06T09:54:13;18.33;;;13.13;;
44438;SDS011;30145;48.874;10.186;2024-03-06T09:56:48;21.93;;;13.67;;
44438;SDS011;30145;48.874;10.186;2024-03-06T09:59:15;20.13;;;13.57;;
44438;SDS011;30145;48.874;10.186;2024-03-06T10:02:00;22.50;;;14.57;;
44438;SDS011;30145;48.874;10.186;2024-03-06T10:04:32;21.90;;;14.53;;
44438;SDS011;30145;48.874;10.186;2024-03-06T10:07:00;25.17;;;14.70;;
44438;SDS011;30145;48.874;10.186;2024-03-06T10:09:29;21.23;;;14.53;;
44438;SDS011;30145;48.874;10.186;2024-03-06T10:11:57;19.47;;;13.53;;
44438;SDS011;30145;48.874;10.186;2024-03-06T10:14:25;22.17;;;13.80;;
44438;SDS011;30145;48.874;10.186;2024-03-06T10:16:59;21.90;;;15.13;;
44438;SDS011;30145;48.874;10.186;2024-03-06T10:19:28;20.17;;;13.97;;
44438;SDS011;30145;48.874;10.186;2024-03-06T10:21:56;23.63;;;15.17;;
44438;SDS011;30145;48.874;10.186;2024-03-06T10:24:24;23.03;;;14.67;;
44438;SDS011;30145;48.874;10.186;2024-03-06T10:26:52;21.40;;;14.23;;
44438;SDS011;30145;48.874;10.186;2024-03-06T10:29:22;22.00;;;14.43;;
44438;SDS011;30145;48.874;10.186;2024-03-06T10:31:52;22.93;;;14.47;;
44438;SDS011;30145;48.874;10.186;2024-03-06T10:34:19;22.23;;;14.30;;
44438;SDS011;30145;48.874;10.186;2024-03-06T10:37:00;23.83;;;14.40;;
44438;SDS011;30145;48.874;10.186;2024-03-06T10:39:30;21.20;;;14.17;;
44438;SDS011;30145;48.874;10.186;2024-03-06T10:42:01;21.73;;;16.67;;
44438;SDS011;30145;48.874;10.186;2024-03-06T10:44:29;22.70;;;14.07;;
44438;SDS011;30145;48.874;10.186;2024-03-06T10:47:00;27.73;;;16.47;;
44438;SDS011;30145;48.874;10.186;2024-03-06T10:49:28;22.40;;;14.57;;
44438;SDS011;30145;48.874;10.186;2024-03-06T10:52:03;26.37;;;15.50;;
44438;SDS011;30145;48.874;10.186;2024-03-06T10:54:34;23.23;;;15.73;;
44438;SDS011;30145;48.874;10.186;2024-03-06T10:57:05;28.50;;;17.70;;
44438;SDS011;30145;48.874;10.186;2024-03-06T10:59:33;26.50;;;16.17;;
44438;SDS011;30145;48.874;10.186;2024-03-06T11:02:02;26.63;;;16.13;;
44438;SDS011;30145;48.874;10.186;2024-03-06T11:04:30;25.83;;;16.03;;
44438;SDS011;30145;48.874;10.186;2024-03-06T11:07:02;22.90;;;14.50;;
44438;SDS011;30145;48.874;10.186;2024-03-06T11:09:33;25.13;;;15.80;;
44438;SDS011;30145;48.874;10.186;2024-03-06T11:12:07;27.27;;;16.83;;
44438;SDS011;30145;48.874;10.186;2024-03-06T11:14:38;32.70;;;19.60;;
44438;SDS011;30145;48.874;10.186;2024-03-06T11:17:07;32.30;;;19.27;;
44438;SDS011;30145;48.874;10.186;2024-03-06T11:28:21;25.00;;;15.83;;
44438;SDS011;30145;48.874;10.186;2024-03-06T11:30:58;29.67;;;17.13;;
44438;SDS011;30145;48.874;10.186;2024-03-06T11:33:39;37.10;;;20.67;;
44438;SDS011;30145;48.874;10.186;2024-03-06T11:36:21;33.10;;;20.13;;
44438;SDS011;30145;48.874;10.186;2024-03-06T11:44:05;31.50;;;17.83;;
44438;SDS011;30145;48.874;10.186;2024-03-06T11:46:45;28.83;;;17.00;;
44438;SDS011;30145;48.874;10.186;2024-03-06T11:49:20;30.47;;;17.70;;
44438;SDS011;30145;48.874;10.186;2024-03-06T11:51:52;33.33;;;17.17;;
44438;SDS011;30145;48.874;10.186;2024-03-06T11:54:20;29.70;;;16.97;;
44438;SDS011;30145;48.874;10.186;2024-03-06T11:56:56;28.30;;;15.87;;
44438;SDS011;30145;48.874;10.186;2024-03-06T11:59:31;29.47;;;17.07;;
44438;SDS011;30145;48.874;10.186;2024-03-06T12:02:00;26.17;;;15.93;;
44438;SDS011;30145;48.874;10.186;2024-03-06T12:04:29;27.90;;;15.87;;
44438;SDS011;30145;48.874;10.186;2024-03-06T12:06:57;26.07;;;14.50;;
44438;SDS011;30145;48.874;10.186;2024-03-06T12:09:36;26.60;;;16.93;;
44438;SDS011;30145;48.874;10.186;2024-03-06T12:12:05;27.70;;;15.77;;
44438;SDS011;30145;48.874;10.186;2024-03-06T12:14:34;28.07;;;16.50;;
44438;SDS011;30145;48.874;10.186;2024-03-06T12:17:02;27.10;;;16.00;;
44438;SDS011;30145;48.874;10.186;2024-03-06T12:19:32;28.27;;;16.67;;
44438;SDS011;30145;48.874;10.186;2024-03-06T12:22:00;27.40;;;15.93;;
44438;SDS011;30145;48.874;10.186;2024-03-06T12:24:30;29.10;;;16.40;;
44438;SDS011;30145;48.874;10.186;2024-03-06T12:26:59;28.53;;;16.93;;
44438;SDS011;30145;48.874;10.186;2024-03-06T12:29:28;31.07;;;17.80;;
44438;SDS011;30145;48.874;10.186;2024-03-06T12:31:59;25.03;;;16.03;;
44438;SDS011;30145;48.874;10.186;2024-03-06T12:34:27;26.20;;;15.57;;
44438;SDS011;30145;48.874;10.186;2024-03-06T12:36:54;28.93;;;17.33;;
44438;SDS011;30145;48.874;10.186;2024-03-06T12:39:23;29.70;;;17.13;;
44438;SDS011;30145;48.874;10.186;2024-03-06T12:41:50;23.80;;;15.53;;
44438;SDS011;30145;48.874;10.186;2024-03-06T12:44:19;26.07;;;15.53;;
44438;SDS011;30145;48.874;10.186;2024-03-06T12:46:46;28.27;;;15.57;;
44438;SDS011;30145;48.874;10.186;2024-03-06T12:49:13;25.50;;;15.20;;
44438;SDS011;30145;48.874;10.186;2024-03-06T12:51:40;30.43;;;16.93;;
44438;SDS011;30145;48.874;10.186;2024-03-06T12:54:07;27.60;;;16.50;;
44438;SDS011;30145;48.874;10.186;2024-03-06T12:56:35;30.70;;;16.73;;
44438;SDS011;30145;48.874;10.186;2024-03-06T12:59:02;26.10;;;16.47;;
44438;SDS011;30145;48.874;10.186;2024-03-06T13:01:31;23.50;;;14.53;;
44438;SDS011;30145;48.874;10.186;2024-03-06T13:03:58;26.73;;;14.83;;
44438;SDS011;30145;48.874;10.186;2024-03-06T13:06:30;27.63;;;16.07;;
44438;SDS011;30145;48.874;10.186;2024-03-06T13:08:57;29.17;;;16.63;;
44438;SDS011;30145;48.874;10.186;2024-03-06T13:11:25;27.33;;;16.13;;
44438;SDS011;30145;48.874;10.186;2024-03-06T13:13:52;32.40;;;17.27;;
44438;SDS011;30145;48.874;10.186;2024-03-06T13:16:20;27.97;;;15.33;;
44438;SDS011;30145;48.874;10.186;2024-03-06T13:18:48;25.97;;;15.47;;
44438;SDS011;30145;48.874;10.186;2024-03-06T13:21:16;24.90;;;15.87;;
44438;SDS011;30145;48.874;10.186;2024-03-06T13:23:43;28.37;;;17.73;;
44438;SDS011;30145;48.874;10.186;2024-03-06T13:26:10;25.83;;;14.67;;
44438;SDS011;30145;48.874;10.186;2024-03-06T13:28:39;23.60;;;14.53;;
44438;SDS011;30145;48.874;10.186;2024-03-06T13:31:06;26.07;;;14.30;;
44438;SDS011;30145;48.874;10.186;2024-03-06T13:33:33;25.13;;;14.47;;
44438;SDS011;30145;48.874;10.186;2024-03-06T13:36:01;26.70;;;15.60;;
44438;SDS011;30145;48.874;10.186;2024-03-06T13:38:28;25.13;;;14.87;;
44438;SDS011;30145;48.874;10.186;2024-03-06T13:40:55;27.67;;;15.23;;
44438;SDS011;30145;48.874;10.186;2024-03-06T13:43:22;27.03;;;15.60;;
44438;SDS011;30145;48.874;10.186;2024-03-06T13:45:50;26.80;;;15.83;;
44438;SDS011;30145;48.874;10.186;2024-03-06T13:48:18;26.23;;;15.27;;
44438;SDS011;30145;48.874;10.186;2024-03-06T13:50:45;28.67;;;16.60;;
44438;SDS011;30145;48.874;10.186;2024-03-06T13:53:13;29.37;;;16.40;;
44438;SDS011;30145;48.874;10.186;2024-03-06T13:55:40;28.13;;;16.30;;
44438;SDS011;30145;48.874;10.186;2024-03-06T13:58:08;25.53;;;15.90;;
44438;SDS011;30145;48.874;10.186;2024-03-06T14:00:35;27.83;;;17.73;;
44438;SDS011;30145;48.874;10.186;2024-03-06T14:03:02;30.27;;;16.10;;
44438;SDS011;30145;48.874;10.186;2024-03-06T14:05:30;24.07;;;14.37;;
44438;SDS011;30145;48.874;10.186;2024-03-06T14:07:57;26.60;;;15.70;;
44438;SDS011;30145;48.874;10.186;2024-03-06T14:10:24;32.63;;;18.40;;
44438;SDS011;30145;48.874;10.186;2024-03-06T14:12:53;27.17;;;15.73;;
44438;SDS011;30145;48.874;10.186;2024-03-06T14:15:21;29.10;;;16.20;;
44438;SDS011;30145;48.874;10.186;2024-03-06T14:17:50;26.90;;;15.93;;
44438;SDS011;30145;48.874;10.186;2024-03-06T14:20:17;28.23;;;16.57;;
44438;SDS011;30145;48.874;10.186;2024-03-06T14:22:46;24.33;;;15.73;;
44438;SDS011;30145;48.874;10.186;2024-03-06T14:25:14;26.40;;;15.90;;
44438;SDS011;30145;48.874;10.186;2024-03-06T14:27:41;24.17;;;15.00;;
44438;SDS011;30145;48.874;10.186;2024-03-06T14:30:08;25.30;;;15.77;;
44438;SDS011;30145;48.874;10.186;2024-03-06T14:32:38;26.17;;;14.77;;
44438;SDS011;30145;48.874;10.186;2024-03-06T14:35:05;27.90;;;15.90;;
44438;SDS011;30145;48.874;10.186;2024-03-06T14:37:33;26.13;;;15.70;;